sensor_id;sensor_type;location;lat;lon;timestamp;temperature;humidity
21267;DHT22;10791;53.108;18.326;2022-08-01T00:00:27;12.00;99.90
21267;DHT22;10791;53.108;18.326;2022-08-01T00:05:44;12.00;99.90
21267;DHT22;10791;53.108;18.326;2022-08-01T00:10:51;11.90;99.90
21267;DHT22;10791;53.108;18.326;2022-08-01T00:15:55;11.90;99.90
21267;DHT22;10791;53.108;18.326;2022-08-01T00:21:01;11.80;99.90
21267;DHT22;10791;53.108;18.326;2022-08-01T00:26:04;11.70;99.90
21267;DHT22;10791;53.108;18.326;2022-08-01T00:31:13;11.50;99.90
21267;DHT22;10791;53.108;18.326;2022-08-01T00:36:17;11.50;99.90
21267;DHT22;10791;53.108;18.326;2022-08-01T00:41:23;11.30;99.90
21267;DHT22;10791;53.108;18.326;2022-08-01T00:46:33;11.30;99.90
21267;DHT22;10791;53.108;18.326;2022-08-01T00:51:39;11.30;99.90
21267;DHT22;10791;53.108;18.326;2022-08-01T00:56:43;11.30;99.90
21267;DHT22;10791;53.108;18.326;2022-08-01T01:01:46;11.10;99.90
21267;DHT22;10791;53.108;18.326;2022-08-01T01:07:17;11.10;99.90
21267;DHT22;10791;53.108;18.326;2022-08-01T01:12:24;11.00;99.90
21267;DHT22;10791;53.108;18.326;2022-08-01T01:17:48;11.00;99.90
21267;DHT22;10791;53.108;18.326;2022-08-01T01:23:12;11.00;99.90
21267;DHT22;10791;53.108;18.326;2022-08-01T01:28:33;11.00;99.90
21267;DHT22;10791;53.108;18.326;2022-08-01T01:33:40;10.90;99.90
21267;DHT22;10791;53.108;18.326;2022-08-01T01:38:51;10.90;99.90
21267;DHT22;10791;53.108;18.326;2022-08-01T01:43:56;10.90;99.90
21267;DHT22;10791;53.108;18.326;2022-08-01T01:49:01;10.90;99.90
21267;DHT22;10791;53.108;18.326;2022-08-01T01:54:07;10.90;99.90
21267;DHT22;10791;53.108;18.326;2022-08-01T01:59:11;10.80;99.90
21267;DHT22;10791;53.108;18.326;2022-08-01T02:04:16;10.70;99.90
21267;DHT22;10791;53.108;18.326;2022-08-01T02:09:21;10.50;99.90
21267;DHT22;10791;53.108;18.326;2022-08-01T02:14:27;10.50;99.90
21267;DHT22;10791;53.108;18.326;2022-08-01T02:19:33;10.50;99.90
21267;DHT22;10791;53.108;18.326;2022-08-01T02:24:41;10.50;99.90
21267;DHT22;10791;53.108;18.326;2022-08-01T02:29:55;10.40;99.90
21267;DHT22;10791;53.108;18.326;2022-08-01T02:35:02;10.40;99.90
21267;DHT22;10791;53.108;18.326;2022-08-01T02:40:12;10.40;99.90
21267;DHT22;10791;53.108;18.326;2022-08-01T02:45:24;10.40;99.90
21267;DHT22;10791;53.108;18.326;2022-08-01T02:50:30;10.40;99.90
21267;DHT22;10791;53.108;18.326;2022-08-01T02:55:45;10.30;99.90
21267;DHT22;10791;53.108;18.326;2022-08-01T03:00:51;10.30;99.90
21267;DHT22;10791;53.108;18.326;2022-08-01T03:05:55;10.30;99.90
21267;DHT22;10791;53.108;18.326;2022-08-01T03:10:59;10.30;99.90
21267;DHT22;10791;53.108;18.326;2022-08-01T03:16:05;10.30;99.90
21267;DHT22;10791;53.108;18.326;2022-08-01T03:21:10;10.20;99.90
21267;DHT22;10791;53.108;18.326;2022-08-01T03:26:19;10.20;99.90
21267;DHT22;10791;53.108;18.326;2022-08-01T03:31:24;10.30;99.90
21267;DHT22;10791;53.108;18.326;2022-08-01T03:36:32;10.30;99.90
21267;DHT22;10791;53.108;18.326;2022-08-01T03:41:43;10.30;99.90
21267;DHT22;10791;53.108;18.326;2022-08-01T03:46:50;10.30;99.90
21267;DHT22;10791;53.108;18.326;2022-08-01T03:51:55;10.40;99.90
21267;DHT22;10791;53.108;18.326;2022-08-01T03:57:00;10.50;99.90
21267;DHT22;10791;53.108;18.326;2022-08-01T04:02:08;10.70;99.90
21267;DHT22;10791;53.108;18.326;2022-08-01T04:07:32;10.80;99.90
21267;DHT22;10791;53.108;18.326;2022-08-01T04:12:39;11.00;99.90
21267;DHT22;10791;53.108;18.326;2022-08-01T04:17:49;11.00;99.90
21267;DHT22;10791;53.108;18.326;2022-08-01T04:22:52;11.30;99.90
21267;DHT22;10791;53.108;18.326;2022-08-01T04:28:00;11.60;99.90
21267;DHT22;10791;53.108;18.326;2022-08-01T04:33:08;12.00;99.90
21267;DHT22;10791;53.108;18.326;2022-08-01T04:38:15;12.20;99.90
21267;DHT22;10791;53.108;18.326;2022-08-01T04:43:20;12.50;99.90
21267;DHT22;10791;53.108;18.326;2022-08-01T04:48:25;12.70;99.90
21267;DHT22;10791;53.108;18.326;2022-08-01T04:53:31;13.00;99.90
21267;DHT22;10791;53.108;18.326;2022-08-01T04:58:35;13.30;99.90
21267;DHT22;10791;53.108;18.326;2022-08-01T05:03:42;13.70;99.90
21267;DHT22;10791;53.108;18.326;2022-08-01T05:08:46;14.00;99.90
21267;DHT22;10791;53.108;18.326;2022-08-01T05:13:58;14.30;99.90
21267;DHT22;10791;53.108;18.326;2022-08-01T05:19:02;14.50;99.90
21267;DHT22;10791;53.108;18.326;2022-08-01T05:24:06;14.70;99.90
21267;DHT22;10791;53.108;18.326;2022-08-01T05:29:10;15.00;99.90
21267;DHT22;10791;53.108;18.326;2022-08-01T05:34:13;15.20;99.90
21267;DHT22;10791;53.108;18.326;2022-08-01T05:39:20;15.40;99.90
21267;DHT22;10791;53.108;18.326;2022-08-01T05:44:23;15.40;99.90
21267;DHT22;10791;53.108;18.326;2022-08-01T05:49:27;15.30;99.90
21267;DHT22;10791;53.108;18.326;2022-08-01T05:54:31;15.30;99.90
21267;DHT22;10791;53.108;18.326;2022-08-01T05:59:34;15.30;99.90
21267;DHT22;10791;53.108;18.326;2022-08-01T06:04:38;15.30;99.90
21267;DHT22;10791;53.108;18.326;2022-08-01T06:09:41;15.40;99.90
21267;DHT22;10791;53.108;18.326;2022-08-01T06:14:44;15.40;99.90
21267;DHT22;10791;53.108;18.326;2022-08-01T06:19:47;15.50;99.90
21267;DHT22;10791;53.108;18.326;2022-08-01T06:24:51;15.70;99.90
21267;DHT22;10791;53.108;18.326;2022-08-01T06:30:03;15.80;99.90
21267;DHT22;10791;53.108;18.326;2022-08-01T06:35:09;16.00;99.90
21267;DHT22;10791;53.108;18.326;2022-08-01T06:40:14;16.20;99.90
21267;DHT22;10791;53.108;18.326;2022-08-01T06:45:19;16.40;99.90
21267;DHT22;10791;53.108;18.326;2022-08-01T06:50:25;16.40;99.90
21267;DHT22;10791;53.108;18.326;2022-08-01T06:55:28;16.70;99.90
21267;DHT22;10791;53.108;18.326;2022-08-01T07:00:32;16.80;99.90
21267;DHT22;10791;53.108;18.326;2022-08-01T07:05:36;17.10;99.90
21267;DHT22;10791;53.108;18.326;2022-08-01T07:10:39;17.20;99.90
21267;DHT22;10791;53.108;18.326;2022-08-01T07:15:43;17.20;99.90
21267;DHT22;10791;53.108;18.326;2022-08-01T07:20:46;17.60;99.90
21267;DHT22;10791;53.108;18.326;2022-08-01T07:25:54;17.90;99.90
21267;DHT22;10791;53.108;18.326;2022-08-01T07:31:05;18.00;99.90
21267;DHT22;10791;53.108;18.326;2022-08-01T07:36:09;18.20;99.90
21267;DHT22;10791;53.108;18.326;2022-08-01T07:41:12;18.60;99.90
21267;DHT22;10791;53.108;18.326;2022-08-01T07:46:16;19.00;99.90
21267;DHT22;10791;53.108;18.326;2022-08-01T07:51:19;19.60;99.90
21267;DHT22;10791;53.108;18.326;2022-08-01T07:56:23;20.30;99.90
21267;DHT22;10791;53.108;18.326;2022-08-01T08:01:32;20.50;99.90
21267;DHT22;10791;53.108;18.326;2022-08-01T08:06:35;20.50;99.90
21267;DHT22;10791;53.108;18.326;2022-08-01T08:11:49;20.60;99.90
21267;DHT22;10791;53.108;18.326;2022-08-01T08:16:52;20.50;99.90
21267;DHT22;10791;53.108;18.326;2022-08-01T08:21:55;20.60;99.90
21267;DHT22;10791;53.108;18.326;2022-08-01T08:27:00;20.40;99.90
21267;DHT22;10791;53.108;18.326;2022-08-01T08:32:04;20.40;99.90
21267;DHT22;10791;53.108;18.326;2022-08-01T08:37:11;20.50;99.90
21267;DHT22;10791;53.108;18.326;2022-08-01T08:42:17;20.50;99.90
21267;DHT22;10791;53.108;18.326;2022-08-01T08:47:22;20.70;99.90
21267;DHT22;10791;53.108;18.326;2022-08-01T08:52:26;20.60;99.90
21267;DHT22;10791;53.108;18.326;2022-08-01T08:57:30;20.60;99.90
21267;DHT22;10791;53.108;18.326;2022-08-01T09:02:35;20.60;99.90
21267;DHT22;10791;53.108;18.326;2022-08-01T09:07:42;20.60;99.90
21267;DHT22;10791;53.108;18.326;2022-08-01T09:18:33;20.50;99.90
21267;DHT22;10791;53.108;18.326;2022-08-01T09:23:39;20.60;99.90
21267;DHT22;10791;53.108;18.326;2022-08-01T09:28:57;20.60;99.90
21267;DHT22;10791;53.108;18.326;2022-08-01T09:34:01;20.60;99.90
21267;DHT22;10791;53.108;18.326;2022-08-01T09:39:13;20.70;99.90
21267;DHT22;10791;53.108;18.326;2022-08-01T09:44:17;20.80;99.90
21267;DHT22;10791;53.108;18.326;2022-08-01T09:49:42;20.90;99.90
21267;DHT22;10791;53.108;18.326;2022-08-01T09:55:03;20.90;99.90
21267;DHT22;10791;53.108;18.326;2022-08-01T10:00:17;21.00;99.90
21267;DHT22;10791;53.108;18.326;2022-08-01T10:05:44;21.00;99.90
21267;DHT22;10791;53.108;18.326;2022-08-01T10:11:12;21.20;99.90
21267;DHT22;10791;53.108;18.326;2022-08-01T10:16:18;21.30;99.90
21267;DHT22;10791;53.108;18.326;2022-08-01T10:21:23;21.70;99.90
21267;DHT22;10791;53.108;18.326;2022-08-01T10:26:52;22.10;99.90
21267;DHT22;10791;53.108;18.326;2022-08-01T10:32:05;22.50;99.90
21267;DHT22;10791;53.108;18.326;2022-08-01T10:37:10;22.80;99.90
21267;DHT22;10791;53.108;18.326;2022-08-01T10:42:21;23.10;99.90
21267;DHT22;10791;53.108;18.326;2022-08-01T10:47:40;23.50;99.90
21267;DHT22;10791;53.108;18.326;2022-08-01T10:53:12;23.80;99.90
21267;DHT22;10791;53.108;18.326;2022-08-01T10:58:36;23.80;99.90
21267;DHT22;10791;53.108;18.326;2022-08-01T11:04:06;24.00;99.90
21267;DHT22;10791;53.108;18.326;2022-08-01T11:09:46;23.90;99.90
21267;DHT22;10791;53.108;18.326;2022-08-01T11:20:13;24.30;99.90
21267;DHT22;10791;53.108;18.326;2022-08-01T11:25:21;24.20;99.90
21267;DHT22;10791;53.108;18.326;2022-08-01T11:41:44;25.10;99.40
21267;DHT22;10791;53.108;18.326;2022-08-01T11:57:13;25.40;95.60
21267;DHT22;10791;53.108;18.326;2022-08-01T12:02:25;25.60;96.80
21267;DHT22;10791;53.108;18.326;2022-08-01T12:07:36;25.80;94.10
21267;DHT22;10791;53.108;18.326;2022-08-01T12:12:48;26.20;96.40
21267;DHT22;10791;53.108;18.326;2022-08-01T12:17:56;26.60;93.30
21267;DHT22;10791;53.108;18.326;2022-08-01T12:23:06;26.90;90.00
21267;DHT22;10791;53.108;18.326;2022-08-01T12:28:14;27.20;90.90
21267;DHT22;10791;53.108;18.326;2022-08-01T12:33:23;27.60;89.10
21267;DHT22;10791;53.108;18.326;2022-08-01T12:38:27;27.90;83.80
21267;DHT22;10791;53.108;18.326;2022-08-01T12:43:33;28.10;81.00
21267;DHT22;10791;53.108;18.326;2022-08-01T12:48:37;28.00;83.80
21267;DHT22;10791;53.108;18.326;2022-08-01T12:53:41;28.30;81.40
21267;DHT22;10791;53.108;18.326;2022-08-01T12:58:45;28.30;75.10
21267;DHT22;10791;53.108;18.326;2022-08-01T13:04:02;28.20;77.20
21267;DHT22;10791;53.108;18.326;2022-08-01T13:09:10;28.30;76.20
21267;DHT22;10791;53.108;18.326;2022-08-01T13:14:28;28.00;77.90
21267;DHT22;10791;53.108;18.326;2022-08-01T13:19:45;27.50;77.50
21267;DHT22;10791;53.108;18.326;2022-08-01T13:24:49;27.40;77.00
21267;DHT22;10791;53.108;18.326;2022-08-01T13:29:53;27.30;79.10
21267;DHT22;10791;53.108;18.326;2022-08-01T13:35:07;27.60;80.10
21267;DHT22;10791;53.108;18.326;2022-08-01T13:40:11;27.50;78.60
21267;DHT22;10791;53.108;18.326;2022-08-01T13:45:14;27.80;79.50
21267;DHT22;10791;53.108;18.326;2022-08-01T13:50:17;28.00;77.40
21267;DHT22;10791;53.108;18.326;2022-08-01T13:55:23;27.90;73.30
21267;DHT22;10791;53.108;18.326;2022-08-01T14:00:26;27.90;76.30
21267;DHT22;10791;53.108;18.326;2022-08-01T14:05:30;28.00;76.20
21267;DHT22;10791;53.108;18.326;2022-08-01T14:10:33;28.10;75.50
21267;DHT22;10791;53.108;18.326;2022-08-01T14:15:36;28.10;74.80
21267;DHT22;10791;53.108;18.326;2022-08-01T14:20:42;27.90;72.60
21267;DHT22;10791;53.108;18.326;2022-08-01T14:25:48;28.10;74.50
21267;DHT22;10791;53.108;18.326;2022-08-01T14:31:06;28.20;72.20
21267;DHT22;10791;53.108;18.326;2022-08-01T14:36:10;28.20;70.00
21267;DHT22;10791;53.108;18.326;2022-08-01T14:41:32;28.30;73.60
21267;DHT22;10791;53.108;18.326;2022-08-01T14:46:35;28.60;71.20
21267;DHT22;10791;53.108;18.326;2022-08-01T14:51:58;28.40;72.80
21267;DHT22;10791;53.108;18.326;2022-08-01T14:57:02;28.50;70.40
21267;DHT22;10791;53.108;18.326;2022-08-01T15:02:06;28.40;71.00
21267;DHT22;10791;53.108;18.326;2022-08-01T15:07:10;28.80;66.00
21267;DHT22;10791;53.108;18.326;2022-08-01T15:12:14;29.00;68.30
21267;DHT22;10791;53.108;18.326;2022-08-01T15:17:23;29.40;66.50
21267;DHT22;10791;53.108;18.326;2022-08-01T15:22:33;29.30;65.80
21267;DHT22;10791;53.108;18.326;2022-08-01T15:27:36;28.80;66.90
21267;DHT22;10791;53.108;18.326;2022-08-01T15:32:45;28.50;70.60
21267;DHT22;10791;53.108;18.326;2022-08-01T15:37:52;28.60;70.20
21267;DHT22;10791;53.108;18.326;2022-08-01T15:42:58;28.50;71.10
21267;DHT22;10791;53.108;18.326;2022-08-01T15:48:02;28.60;71.50
21267;DHT22;10791;53.108;18.326;2022-08-01T15:53:06;28.30;69.90
21267;DHT22;10791;53.108;18.326;2022-08-01T15:58:09;27.70;71.50
21267;DHT22;10791;53.108;18.326;2022-08-01T16:03:13;27.30;74.00
21267;DHT22;10791;53.108;18.326;2022-08-01T16:08:17;27.20;72.80
21267;DHT22;10791;53.108;18.326;2022-08-01T16:13:20;27.30;72.50
21267;DHT22;10791;53.108;18.326;2022-08-01T16:18:24;27.30;72.60
21267;DHT22;10791;53.108;18.326;2022-08-01T16:23:28;27.50;70.00
21267;DHT22;10791;53.108;18.326;2022-08-01T16:28:32;27.60;69.30
21267;DHT22;10791;53.108;18.326;2022-08-01T16:33:36;27.70;70.10
21267;DHT22;10791;53.108;18.326;2022-08-01T16:38:53;27.80;69.60
21267;DHT22;10791;53.108;18.326;2022-08-01T16:43:56;27.40;71.30
21267;DHT22;10791;53.108;18.326;2022-08-01T16:49:00;27.30;73.50
21267;DHT22;10791;53.108;18.326;2022-08-01T16:54:05;27.10;72.90
21267;DHT22;10791;53.108;18.326;2022-08-01T16:59:27;27.10;73.30
21267;DHT22;10791;53.108;18.326;2022-08-01T17:04:31;27.10;75.30
21267;DHT22;10791;53.108;18.326;2022-08-01T17:09:34;27.10;75.90
21267;DHT22;10791;53.108;18.326;2022-08-01T17:14:44;27.10;76.70
21267;DHT22;10791;53.108;18.326;2022-08-01T17:19:49;27.00;75.00
21267;DHT22;10791;53.108;18.326;2022-08-01T17:24:53;26.80;76.50
21267;DHT22;10791;53.108;18.326;2022-08-01T17:29:56;26.70;77.30
21267;DHT22;10791;53.108;18.326;2022-08-01T17:35:01;26.50;78.20
21267;DHT22;10791;53.108;18.326;2022-08-01T17:40:05;26.40;79.00
21267;DHT22;10791;53.108;18.326;2022-08-01T17:45:30;26.30;80.20
21267;DHT22;10791;53.108;18.326;2022-08-01T17:50:43;26.10;82.50
21267;DHT22;10791;53.108;18.326;2022-08-01T17:55:47;25.90;84.30
21267;DHT22;10791;53.108;18.326;2022-08-01T18:00:58;25.70;81.70
21267;DHT22;10791;53.108;18.326;2022-08-01T18:06:02;25.50;83.00
21267;DHT22;10791;53.108;18.326;2022-08-01T18:11:06;25.30;87.30
21267;DHT22;10791;53.108;18.326;2022-08-01T18:16:11;25.10;88.00
21267;DHT22;10791;53.108;18.326;2022-08-01T18:21:15;24.50;95.00
21267;DHT22;10791;53.108;18.326;2022-08-01T18:26:21;24.10;99.90
21267;DHT22;10791;53.108;18.326;2022-08-01T18:31:25;23.80;99.90
21267;DHT22;10791;53.108;18.326;2022-08-01T18:36:29;23.50;99.90
21267;DHT22;10791;53.108;18.326;2022-08-01T18:41:36;23.30;99.90
21267;DHT22;10791;53.108;18.326;2022-08-01T18:46:40;23.00;99.90
21267;DHT22;10791;53.108;18.326;2022-08-01T18:51:44;22.90;99.90
21267;DHT22;10791;53.108;18.326;2022-08-01T18:56:50;22.70;99.90
21267;DHT22;10791;53.108;18.326;2022-08-01T19:01:54;22.60;99.90
21267;DHT22;10791;53.108;18.326;2022-08-01T19:06:57;22.60;99.90
21267;DHT22;10791;53.108;18.326;2022-08-01T19:12:01;22.40;99.90
21267;DHT22;10791;53.108;18.326;2022-08-01T19:17:06;22.30;99.90
21267;DHT22;10791;53.108;18.326;2022-08-01T19:22:10;22.20;99.90
21267;DHT22;10791;53.108;18.326;2022-08-01T19:27:15;22.00;99.90
21267;DHT22;10791;53.108;18.326;2022-08-01T19:32:23;21.70;99.90
21267;DHT22;10791;53.108;18.326;2022-08-01T19:37:29;21.40;99.90
21267;DHT22;10791;53.108;18.326;2022-08-01T19:42:32;21.20;99.90
21267;DHT22;10791;53.108;18.326;2022-08-01T19:47:36;20.90;99.90
21267;DHT22;10791;53.108;18.326;2022-08-01T19:53:02;20.70;99.90
21267;DHT22;10791;53.108;18.326;2022-08-01T19:58:06;20.50;99.90
21267;DHT22;10791;53.108;18.326;2022-08-01T20:03:33;20.30;99.90
21267;DHT22;10791;53.108;18.326;2022-08-01T20:08:37;20.30;99.90
21267;DHT22;10791;53.108;18.326;2022-08-01T20:13:41;20.20;99.90
21267;DHT22;10791;53.108;18.326;2022-08-01T20:18:44;20.10;99.90
21267;DHT22;10791;53.108;18.326;2022-08-01T20:23:49;20.00;99.90
21267;DHT22;10791;53.108;18.326;2022-08-01T20:28:56;19.90;99.90
21267;DHT22;10791;53.108;18.326;2022-08-01T20:34:00;19.70;99.90
21267;DHT22;10791;53.108;18.326;2022-08-01T20:39:12;19.60;99.90
21267;DHT22;10791;53.108;18.326;2022-08-01T20:44:18;19.50;99.90
21267;DHT22;10791;53.108;18.326;2022-08-01T20:49:25;19.40;99.90
21267;DHT22;10791;53.108;18.326;2022-08-01T20:54:29;19.40;99.90
21267;DHT22;10791;53.108;18.326;2022-08-01T21:06:27;19.20;99.90
21267;DHT22;10791;53.108;18.326;2022-08-01T21:12:01;19.20;99.90
21267;DHT22;10791;53.108;18.326;2022-08-01T21:17:10;19.10;99.90
21267;DHT22;10791;53.108;18.326;2022-08-01T21:22:51;19.10;99.90
21267;DHT22;10791;53.108;18.326;2022-08-01T21:28:01;19.10;99.90
21267;DHT22;10791;53.108;18.326;2022-08-01T21:33:10;19.00;99.90
21267;DHT22;10791;53.108;18.326;2022-08-01T21:38:15;18.90;99.90
21267;DHT22;10791;53.108;18.326;2022-08-01T21:43:20;18.90;99.90
21267;DHT22;10791;53.108;18.326;2022-08-01T21:48:27;18.90;99.90
21267;DHT22;10791;53.108;18.326;2022-08-01T21:53:44;19.00;99.90
21267;DHT22;10791;53.108;18.326;2022-08-01T21:59:35;19.00;99.90
21267;DHT22;10791;53.108;18.326;2022-08-01T22:04:58;19.10;99.90
21267;DHT22;10791;53.108;18.326;2022-08-01T22:10:05;19.10;99.90
21267;DHT22;10791;53.108;18.326;2022-08-01T22:15:09;19.30;99.90
21267;DHT22;10791;53.108;18.326;2022-08-01T22:20:13;19.40;99.90
21267;DHT22;10791;53.108;18.326;2022-08-01T22:25:17;19.50;99.90
21267;DHT22;10791;53.108;18.326;2022-08-01T22:30:20;19.50;99.90
21267;DHT22;10791;53.108;18.326;2022-08-01T22:35:24;19.50;99.90
21267;DHT22;10791;53.108;18.326;2022-08-01T22:40:31;19.60;99.90
21267;DHT22;10791;53.108;18.326;2022-08-01T22:45:41;19.60;99.90
21267;DHT22;10791;53.108;18.326;2022-08-01T22:56:13;19.70;99.90
21267;DHT22;10791;53.108;18.326;2022-08-01T23:01:20;19.70;99.90
21267;DHT22;10791;53.108;18.326;2022-08-01T23:06:41;19.80;99.90
21267;DHT22;10791;53.108;18.326;2022-08-01T23:11:45;19.70;99.90
21267;DHT22;10791;53.108;18.326;2022-08-01T23:16:50;19.70;99.90
21267;DHT22;10791;53.108;18.326;2022-08-01T23:21:53;19.70;99.90
21267;DHT22;10791;53.108;18.326;2022-08-01T23:27:01;19.70;99.90
21267;DHT22;10791;53.108;18.326;2022-08-01T23:32:30;19.70;99.90
21267;DHT22;10791;53.108;18.326;2022-08-01T23:37:37;19.70;99.90
21267;DHT22;10791;53.108;18.326;2022-08-01T23:42:40;19.60;99.90
21267;DHT22;10791;53.108;18.326;2022-08-01T23:47:43;19.60;99.90
21267;DHT22;10791;53.108;18.326;2022-08-01T23:52:46;19.60;99.90
21267;DHT22;10791;53.108;18.326;2022-08-01T23:57:51;19.60;99.90
